Time;durP1;ratioP1;P1;durP2;ratioP2;P2;SDS_P1;SDS_P2;PMS_P1;PMS_P2;Temp;Humidity;BMP_temperature;BMP_pressure;BME280_temperature;BME280_humidity;BME280_pressure;Samples;Min_cycle;Max_cycle;Signal;HPM_P1;HPM_P2
2022/01/03 00:00:33;;;;;;;3.58;0.30;;;8.20;99.90;;;;;;5068654;28;20495;-82
2022/01/03 00:03:02;;;;;;;6.45;0.68;;;8.20;99.90;;;;;;5067855;28;20448;-82
2022/01/03 00:05:28;;;;;;;4.28;0.75;;;9.20;99.90;;;;;;5085462;28;20061;-82
2022/01/03 00:07:54;;;;;;;3.53;0.60;;;8.50;99.90;;;;;;5066611;28;20040;-83
2022/01/03 00:10:20;;;;;;;5.28;0.60;;;8.40;99.90;;;;;;5066552;28;20169;-82
2022/01/03 00:12:47;;;;;;;4.82;0.88;;;8.60;99.90;;;;;;5086593;28;20113;-80
2022/01/03 00:15:14;;;;;;;5.82;1.48;;;8.50;99.90;;;;;;5084376;28;20503;-81
2022/01/03 00:17:41;;;;;;;1.90;0.55;;;8.50;99.90;;;;;;5086351;28;20411;-82
2022/01/03 00:20:08;;;;;;;2.15;0.75;;;8.60;99.90;;;;;;5067054;28;20071;-81
2022/01/03 00:22:48;;;;;;;14.38;1.20;;;8.60;99.90;;;;;;5048912;28;20040;-81
2022/01/03 00:25:17;;;;;;;10.82;1.33;;;8.60;99.90;;;;;;5068292;28;20048;-81
2022/01/03 00:28:02;;;;;;;5.70;0.98;;;8.80;99.90;;;;;;5066317;28;20062;-82
2022/01/03 00:30:30;;;;;;;15.80;1.67;;;8.70;99.90;;;;;;5051295;28;20067;-81
2022/01/03 00:32:58;;;;;;;5.57;1.02;;;9.00;99.90;;;;;;5066753;28;20044;-81
2022/01/03 00:35:24;;;;;;;13.07;1.15;;;8.80;99.90;;;;;;5049703;28;20054;-81
2022/01/03 00:37:50;;;;;;;16.45;1.58;;;9.30;99.90;;;;;;5050615;28;20040;-80
2022/01/03 00:40:19;;;;;;;12.68;1.65;;;8.90;99.90;;;;;;5049273;28;20043;-81
2022/01/03 00:42:45;;;;;;;7.88;0.88;;;8.90;99.90;;;;;;5067228;28;20062;-81
2022/01/03 00:45:11;;;;;;;11.15;0.80;;;8.90;99.90;;;;;;5065827;28;20059;-82
2022/01/03 00:47:38;;;;;;;11.70;1.33;;;9.00;99.90;;;;;;5085479;28;20040;-82
2022/01/03 00:50:07;;;;;;;13.35;1.13;;;9.00;99.90;;;;;;5049878;28;20086;-81
2022/01/03 00:52:34;;;;;;;10.48;1.10;;;9.00;99.90;;;;;;5083993;28;20078;-82
2022/01/03 00:55:00;;;;;;;8.45;1.58;;;9.00;99.90;;;;;;5085818;28;20040;-81
2022/01/03 00:57:42;;;;;;;12.27;1.52;;;9.00;99.90;;;;;;5065483;28;20047;-81
2022/01/03 01:00:09;;;;;;;14.10;1.80;;;9.10;99.90;;;;;;5085854;28;20488;-82
2022/01/03 01:02:37;;;;;;;6.53;1.15;;;9.10;99.90;;;;;;5084501;28;20063;-81
2022/01/03 01:05:04;;;;;;;10.65;1.33;;;9.60;99.90;;;;;;5085189;28;20062;-81
2022/01/03 01:07:32;;;;;;;13.82;1.35;;;9.10;99.90;;;;;;5084874;28;20040;-81
2022/01/03 01:10:00;;;;;;;8.60;1.40;;;9.10;99.90;;;;;;5083395;28;20075;-82
2022/01/03 01:12:29;;;;;;;18.77;1.92;;;9.70;99.90;;;;;;5050631;28;20123;-80
2022/01/03 01:14:55;;;;;;;11.80;1.40;;;9.00;99.90;;;;;;5082279;28;20048;-81
2022/01/03 01:17:21;;;;;;;14.18;2.03;;;9.00;99.90;;;;;;5066761;28;20452;-81
2022/01/03 01:19:47;;;;;;;13.07;2.08;;;9.50;99.90;;;;;;5066032;28;20040;-81
2022/01/03 01:22:14;;;;;;;20.40;1.75;;;9.20;99.90;;;;;;5066789;28;20162;-81
2022/01/03 01:24:50;;;;;;;16.23;1.80;;;9.30;99.90;;;;;;5066710;28;20044;-81
2022/01/03 01:30:00;;;;;;;12.82;2.05;;;9.10;99.90;;;;;;5066866;28;20051;-81
2022/01/03 01:32:28;;;;;;;15.13;1.48;;;9.70;99.90;;;;;;5065281;28;20403;-80
2022/01/03 01:34:56;;;;;;;10.38;1.50;;;9.10;99.90;;;;;;5084516;28;20040;-81
2022/01/03 01:37:23;;;;;;;13.20;1.60;;;9.20;99.90;;;;;;5084073;28;20048;-81
2022/01/03 01:39:49;;;;;;;7.70;1.05;;;9.10;99.90;;;;;;5083213;28;20079;-81
2022/01/03 01:42:17;;;;;;;11.75;1.40;;;9.20;99.90;;;;;;5084863;28;20039;-81
2022/01/03 01:44:48;;;;;;;15.23;1.42;;;9.10;99.90;;;;;;5082999;28;20058;-82
2022/01/03 01:47:16;;;;;;;12.15;1.35;;;9.20;99.90;;;;;;5066637;28;20040;-81
2022/01/03 01:49:47;;;;;;;14.43;1.58;;;9.10;99.90;;;;;;5083518;28;20083;-81
2022/01/03 01:52:24;;;;;;;12.65;2.13;;;9.10;99.90;;;;;;5065962;28;20467;-81
2022/01/03 01:54:55;;;;;;;15.65;1.67;;;9.10;99.90;;;;;;5066238;28;20048;-81
2022/01/03 01:57:23;;;;;;;19.02;2.25;;;9.10;99.90;;;;;;5064300;28;20036;-81
2022/01/03 02:00:04;;;;;;;19.10;1.90;;;9.60;99.90;;;;;;5067167;28;20554;-81
2022/01/03 02:02:49;;;;;;;17.20;2.08;;;9.20;99.90;;;;;;5065016;28;20059;-81
2022/01/03 02:05:26;;;;;;;13.93;2.13;;;9.20;99.90;;;;;;5083757;28;20438;-81
2022/01/03 02:08:07;;;;;;;18.05;1.90;;;9.20;99.90;;;;;;5084691;28;20047;-81
2022/01/03 02:10:50;;;;;;;18.38;2.35;;;9.30;99.90;;;;;;5082758;28;20059;-81
2022/01/03 02:13:20;;;;;;;;;;;9.30;99.90;;;;;;5066821;28;20062;-81
2022/01/03 02:15:50;;;;;;;19.75;2.28;;;9.30;99.90;;;;;;5065474;28;19927;-81
2022/01/03 02:18:16;;;;;;;18.25;2.13;;;9.60;99.90;;;;;;5076050;28;20055;-81
2022/01/03 02:20:41;;;;;;;16.17;1.83;;;9.30;99.90;;;;;;5066408;28;20044;-81
2022/01/03 02:23:07;;;;;;;11.55;2.00;;;9.30;99.90;;;;;;5082340;28;20122;-81
2022/01/03 02:25:33;;;;;;;9.30;1.52;;;9.30;99.90;;;;;;5050092;28;20093;-81
2022/01/03 02:27:59;;;;;;;17.95;1.88;;;9.30;99.90;;;;;;5068720;28;20044;-81
2022/01/03 02:30:28;;;;;;;17.60;1.90;;;9.30;99.90;;;;;;5070035;28;20070;-81
2022/01/03 02:32:54;;;;;;;17.30;2.60;;;9.40;99.90;;;;;;5069469;28;20048;-82
2022/01/03 02:35:21;;;;;;;17.98;1.70;;;9.40;99.90;;;;;;5086724;28;20058;-81
2022/01/03 02:37:47;;;;;;;22.73;2.83;;;9.40;99.90;;;;;;5088307;28;20456;-81
2022/01/03 02:40:14;;;;;;;14.45;2.08;;;9.40;99.90;;;;;;5086456;28;20051;-81
2022/01/03 02:42:41;;;;;;;19.13;2.45;;;9.40;99.90;;;;;;5088475;28;20490;-81
2022/01/03 02:45:13;;;;;;;13.60;2.00;;;9.50;99.90;;;;;;5068085;28;20044;-81
2022/01/03 02:47:40;;;;;;;21.23;2.05;;;9.50;99.90;;;;;;5087436;28;20048;-81
2022/01/03 02:50:09;;;;;;;14.75;2.78;;;9.40;99.90;;;;;;5069067;28;20515;-81
2022/01/03 02:52:35;;;;;;;20.77;2.10;;;9.40;99.90;;;;;;5086267;28;20044;-81
2022/01/03 02:55:00;;;;;;;24.05;2.20;;;9.40;99.90;;;;;;5087989;28;20040;-81
2022/01/03 02:57:33;;;;;;;13.93;1.98;;;9.40;99.90;;;;;;5081470;28;20051;-81
2022/01/03 02:59:59;;;;;;;19.63;2.40;;;9.40;99.90;;;;;;5080410;28;20036;-82
2022/01/03 03:02:26;;;;;;;14.00;2.05;;;9.30;99.90;;;;;;5086396;28;20051;-82
2022/01/03 03:04:57;;;;;;;20.10;2.78;;;10.80;99.90;;;;;;5087320;28;20123;-81
2022/01/03 03:07:25;;;;;;;12.68;2.08;;;9.30;99.90;;;;;;5087448;28;20116;-81
2022/01/03 03:09:51;;;;;;;19.17;1.73;;;9.30;99.90;;;;;;5085714;28;20048;-81
2022/01/03 03:12:17;;;;;;;10.10;1.98;;;9.30;99.90;;;;;;5088047;28;20043;-81
2022/01/03 03:14:43;;;;;;;16.50;2.38;;;9.60;99.90;;;;;;5086078;28;20048;-81
2022/01/03 03:17:09;;;;;;;20.08;2.42;;;9.30;99.90;;;;;;5087796;28;20052;-81
2022/01/03 03:20:02;;;;;;;21.45;2.55;;;9.30;99.90;;;;;;5086297;28;20073;-81
2022/01/03 03:22:29;;;;;;;19.55;2.47;;;9.20;99.90;;;;;;5085603;28;20084;-81
2022/01/03 03:25:15;;;;;;;15.35;2.00;;;9.20;99.90;;;;;;5069418;28;20040;-81
2022/01/03 03:27:46;;;;;;;22.23;3.08;;;9.10;99.90;;;;;;5085596;28;20170;-81
2022/01/03 03:30:16;;;;;;;25.20;2.92;;;9.10;99.90;;;;;;5069307;28;20051;-80
2022/01/03 03:32:43;;;;;;;14.02;2.25;;;9.10;99.90;;;;;;5086545;28;20044;-81
2022/01/03 03:35:09;;;;;;;16.15;2.13;;;9.10;99.90;;;;;;5067697;28;20043;-81
2022/01/03 03:37:35;;;;;;;15.40;2.00;;;9.00;99.90;;;;;;5086297;28;20044;-81
2022/01/03 03:40:01;;;;;;;19.98;2.28;;;9.00;99.90;;;;;;5067394;28;20544;-81
2022/01/03 03:42:27;;;;;;;16.60;2.22;;;9.00;99.90;;;;;;5069041;28;20094;-81
2022/01/03 03:44:53;;;;;;;30.23;3.10;;;8.90;99.90;;;;;;5085735;28;20032;-81
2022/01/03 03:47:18;;;;;;;20.45;2.22;;;8.90;99.90;;;;;;5086969;28;20048;-81
2022/01/03 03:49:44;;;;;;;23.80;2.85;;;8.90;99.90;;;;;;5086031;28;20499;-80
2022/01/03 03:52:10;;;;;;;22.33;2.90;;;8.90;99.90;;;;;;5085701;28;20039;-81
2022/01/03 03:54:36;;;;;;;18.38;2.47;;;9.00;99.90;;;;;;5086457;28;20381;-81
2022/01/03 03:57:06;;;;;;;23.10;2.40;;;8.80;99.90;;;;;;5084854;28;20044;-82
2022/01/03 03:59:31;;;;;;;16.88;2.70;;;8.80;99.90;;;;;;5068849;28;20098;-81
2022/01/03 04:01:58;;;;;;;11.32;2.13;;;8.80;99.90;;;;;;5085234;28;20127;-81
2022/01/03 04:04:24;;;;;;;30.25;3.08;;;9.20;99.90;;;;;;5068597;28;20111;-81
2022/01/03 04:06:49;;;;;;;15.73;2.90;;;8.80;99.90;;;;;;5085379;28;20464;-81
2022/01/03 04:09:15;;;;;;;24.00;2.75;;;8.80;99.90;;;;;;5067247;28;20040;-81
2022/01/03 04:11:41;;;;;;;29.55;3.58;;;8.80;99.90;;;;;;5086262;28;20511;-81
2022/01/03 04:14:07;;;;;;;14.00;2.25;;;8.90;99.90;;;;;;5084860;28;20062;-82
2022/01/03 04:16:34;;;;;;;18.60;2.72;;;8.80;99.90;;;;;;5086166;28;20060;-81
2022/01/03 04:19:00;;;;;;;26.98;2.78;;;8.80;99.90;;;;;;5084982;28;20040;-82
2022/01/03 04:21:27;;;;;;;18.20;2.30;;;9.80;99.90;;;;;;5051233;28;20399;-82
2022/01/03 04:23:53;;;;;;;29.80;3.65;;;8.70;99.90;;;;;;5085512;28;20067;-81
2022/01/03 04:26:19;;;;;;;23.17;2.72;;;8.70;99.90;;;;;;5085220;28;20047;-81
2022/01/03 04:28:45;;;;;;;14.63;2.78;;;8.70;99.90;;;;;;5085526;28;20044;-81
2022/01/03 04:31:11;;;;;;;23.38;2.72;;;8.80;99.90;;;;;;5084083;28;20051;-81
2022/01/03 04:33:37;;;;;;;18.20;1.75;;;8.80;99.90;;;;;;5068173;28;20040;-81
2022/01/03 04:36:04;;;;;;;20.58;2.20;;;9.30;99.90;;;;;;5066409;28;20051;-81
2022/01/03 04:38:30;;;;;;;22.77;2.65;;;7.00;99.90;;;;;;5085490;28;20492;-82
2022/01/03 04:40:56;;;;;;;21.05;2.50;;;8.90;99.90;;;;;;5085078;28;20047;-82
2022/01/03 04:43:22;;;;;;;16.83;2.90;;;8.90;99.90;;;;;;5084797;28;20046;-81
2022/01/03 04:45:49;;;;;;;14.20;1.95;;;8.90;99.90;;;;;;5067396;28;20506;-81
2022/01/03 04:48:15;;;;;;;23.35;3.17;;;8.90;99.90;;;;;;5065949;28;20089;-80
2022/01/03 04:50:41;;;;;;;24.25;3.50;;;8.90;99.90;;;;;;5085723;28;20044;-81
2022/01/03 04:53:06;;;;;;;22.15;3.00;;;8.90;99.90;;;;;;5084016;28;20054;-81
2022/01/03 04:55:32;;;;;;;14.55;2.20;;;9.00;99.90;;;;;;5085825;28;20036;-81
2022/01/03 04:57:58;;;;;;;26.25;3.20;;;8.90;99.90;;;;;;5084662;28;20032;-81
2022/01/03 05:00:24;;;;;;;20.02;2.45;;;8.80;99.90;;;;;;5066704;28;20085;-82
2022/01/03 05:02:50;;;;;;;19.42;2.85;;;8.90;99.90;;;;;;5085130;28;20493;-81
2022/01/03 05:05:15;;;;;;;31.67;2.92;;;10.00;99.90;;;;;;5084324;28;20093;-81
2022/01/03 05:07:41;;;;;;;21.08;2.88;;;10.10;99.90;;;;;;5085397;28;20489;-81
2022/01/03 05:10:07;;;;;;;21.67;2.25;;;8.90;99.90;;;;;;5083615;28;20063;-81
2022/01/03 05:12:34;;;;;;;31.80;3.38;;;8.90;99.90;;;;;;5085596;28;20075;-81
2022/01/03 05:15:00;;;;;;;23.70;2.90;;;8.90;99.90;;;;;;5083960;28;20517;-81
2022/01/03 05:17:27;;;;;;;22.00;3.05;;;8.90;99.90;;;;;;5065986;28;20079;-81
2022/01/03 05:19:53;;;;;;;27.50;3.17;;;8.90;99.90;;;;;;5084687;28;20126;-81
2022/01/03 05:22:18;;;;;;;21.48;3.42;;;8.90;99.90;;;;;;5065216;28;20182;-81
2022/01/03 05:24:44;;;;;;;24.85;4.15;;;8.90;99.90;;;;;;5085035;28;20439;-81
2022/01/03 05:27:10;;;;;;;11.57;2.58;;;8.80;99.90;;;;;;5065548;28;20422;-82
2022/01/03 05:29:35;;;;;;;23.58;2.25;;;9.50;99.90;;;;;;5066736;28;20214;-81
2022/01/03 05:32:01;;;;;;;19.95;2.45;;;8.80;99.90;;;;;;5065272;28;20040;-81
2022/01/03 05:34:27;;;;;;;30.75;3.15;;;8.80;99.90;;;;;;5084358;28;20079;-81
2022/01/03 05:36:53;;;;;;;28.80;3.08;;;8.80;99.90;;;;;;5084649;28;20047;-82
2022/01/03 05:39:18;;;;;;;21.58;3.10;;;9.40;99.90;;;;;;5083840;28;20040;-80
2022/01/03 05:41:44;;;;;;;24.23;3.75;;;8.80;99.90;;;;;;5066634;28;20070;-81
2022/01/03 05:44:10;;;;;;;24.73;3.30;;;8.80;99.90;;;;;;5083221;28;20036;-81
2022/01/03 05:46:36;;;;;;;22.33;3.20;;;8.80;99.90;;;;;;5066880;28;20113;-81
2022/01/03 05:49:02;;;;;;;21.23;2.35;;;8.80;99.90;;;;;;5083446;28;20134;-80
2022/01/03 05:51:28;;;;;;;23.65;3.08;;;9.60;99.90;;;;;;5066512;28;20469;-81
2022/01/03 05:53:54;;;;;;;32.65;4.07;;;8.80;99.90;;;;;;5084101;28;20043;-82
2022/01/03 05:56:20;;;;;;;22.77;3.55;;;8.80;99.90;;;;;;5077087;28;20398;-82
2022/01/03 05:58:46;;;;;;;27.13;3.22;;;8.80;99.90;;;;;;5066019;28;20053;-81
2022/01/03 06:01:12;;;;;;;24.85;2.95;;;8.80;99.90;;;;;;5083960;28;20047;-81
2022/01/03 06:03:39;;;;;;;24.35;3.65;;;8.80;99.90;;;;;;5070488;28;20040;-82
2022/01/03 06:08:32;;;;;;;27.45;3.70;;;8.80;99.90;;;;;;5088510;28;20469;-82
2022/01/03 06:10:57;;;;;;;20.13;2.47;;;8.80;99.90;;;;;;5088194;28;20194;-82
2022/01/03 06:13:24;;;;;;;20.90;3.85;;;9.40;99.90;;;;;;5087179;28;20051;-83
2022/01/03 06:15:49;;;;;;;19.95;2.90;;;8.90;99.90;;;;;;5053629;28;20507;-83
2022/01/03 06:18:16;;;;;;;30.35;3.25;;;8.90;99.90;;;;;;5086625;28;20203;-82
2022/01/03 06:20:44;;;;;;;19.92;2.72;;;8.90;99.90;;;;;;5088885;28;20126;-81
2022/01/03 06:23:11;;;;;;;20.45;3.10;;;8.80;99.90;;;;;;5069144;28;20335;-82
2022/01/03 06:25:37;;;;;;;26.92;3.85;;;10.20;99.90;;;;;;5088100;28;20123;-82
2022/01/03 06:28:07;;;;;;;27.83;2.95;;;8.80;99.90;;;;;;5087776;28;20048;-82
2022/01/03 06:30:41;;;;;;;24.13;3.60;;;8.90;99.90;;;;;;5086759;28;20048;-80
2022/01/03 06:33:08;;;;;;;21.73;2.72;;;9.10;99.90;;;;;;5088438;28;20043;-81
2022/01/03 06:35:34;;;;;;;16.75;2.50;;;9.80;99.90;;;;;;5086778;28;20142;-81
2022/01/03 06:38:01;;;;;;;21.70;2.33;;;8.80;99.90;;;;;;5088550;28;20036;-82
2022/01/03 06:40:27;;;;;;;22.40;3.08;;;10.00;99.90;;;;;;5068491;28;20047;-83
2022/01/03 06:42:53;;;;;;;27.90;3.38;;;8.90;99.90;;;;;;5069230;28;20119;-80
2022/01/03 06:45:20;;;;;;;28.88;2.90;;;9.20;99.90;;;;;;5087482;28;20059;-80
2022/01/03 06:47:46;;;;;;;28.10;3.72;;;9.00;99.90;;;;;;5086120;28;20048;-81
2022/01/03 06:50:12;;;;;;;19.92;3.95;;;9.00;99.90;;;;;;5087753;28;20506;-80
2022/01/03 06:52:38;;;;;;;21.02;3.03;;;9.00;99.90;;;;;;5067711;28;20040;-80
2022/01/03 06:55:05;;;;;;;23.02;3.38;;;8.90;99.90;;;;;;5070068;28;20070;-80
2022/01/03 06:57:32;;;;;;;24.13;2.90;;;8.90;99.90;;;;;;5086504;28;20036;-81
2022/01/03 06:59:57;;;;;;;24.80;2.95;;;9.10;99.90;;;;;;5087394;28;20048;-80
2022/01/03 07:02:23;;;;;;;23.55;3.28;;;8.90;99.90;;;;;;5069136;28;20399;-80
2022/01/03 07:04:49;;;;;;;26.45;3.53;;;9.70;99.90;;;;;;5067720;28;20487;-81
2022/01/03 07:07:15;;;;;;;22.70;2.58;;;8.80;99.90;;;;;;5069316;28;20051;-79
2022/01/03 07:09:41;;;;;;;33.25;3.85;;;8.80;99.90;;;;;;5067590;28;20985;-79
2022/01/03 07:12:08;;;;;;;22.63;2.92;;;8.70;99.90;;;;;;5087156;28;20044;-80
2022/01/03 07:19:50;;;;;;;22.25;2.50;;;8.40;99.90;;;;;;5086856;28;20562;-80
2022/01/03 07:22:16;;;;;;;21.90;3.22;;;9.10;99.90;;;;;;5086104;28;20044;-80
2022/01/03 07:24:42;;;;;;;27.73;2.78;;;8.70;99.90;;;;;;5087750;28;20130;-80
2022/01/03 07:27:11;;;;;;;18.70;2.63;;;9.00;99.90;;;;;;5086147;28;20521;-80
2022/01/03 07:29:37;;;;;;;18.73;3.05;;;8.90;99.90;;;;;;5087135;28;20075;-80
2022/01/03 07:32:04;;;;;;;21.65;3.30;;;8.80;99.90;;;;;;5086528;28;20490;-81
2022/01/03 07:34:30;;;;;;;28.73;3.47;;;8.80;99.90;;;;;;5086051;28;20040;-80
2022/01/03 07:36:56;;;;;;;19.70;3.00;;;8.80;99.90;;;;;;5087071;28;20112;-81
2022/01/03 07:39:21;;;;;;;24.67;2.30;;;8.80;99.90;;;;;;5085365;28;20036;-81
2022/01/03 07:41:47;;;;;;;23.13;2.50;;;8.80;99.90;;;;;;5068742;28;20438;-81
2022/01/03 07:44:13;;;;;;;21.83;3.88;;;7.50;99.90;;;;;;5083259;28;20449;-82
2022/01/03 07:46:39;;;;;;;31.73;3.45;;;9.80;99.90;;;;;;5086578;28;20567;-81
2022/01/03 07:49:04;;;;;;;16.98;2.28;;;8.90;99.90;;;;;;5085746;28;20052;-81
2022/01/03 07:51:30;;;;;;;28.17;2.72;;;8.90;99.90;;;;;;5085629;28;20047;-82
2022/01/03 07:53:57;;;;;;;30.33;2.97;;;8.90;99.90;;;;;;5085838;28;20132;-81
2022/01/03 07:56:23;;;;;;;30.15;2.92;;;9.20;99.90;;;;;;5084277;28;20123;-81
2022/01/03 07:58:48;;;;;;;23.65;3.35;;;8.90;99.90;;;;;;5086456;28;20115;-81
2022/01/03 08:01:14;;;;;;;20.30;2.85;;;9.10;99.90;;;;;;5084480;28;20043;-81
2022/01/03 08:03:40;;;;;;;24.00;4.07;;;8.90;99.90;;;;;;5086573;28;20032;-81
2022/01/03 08:06:08;;;;;;;24.88;3.50;;;8.90;99.90;;;;;;5067156;28;20049;-80
2022/01/03 08:08:34;;;;;;;18.77;3.20;;;8.90;99.90;;;;;;5066870;28;20044;-81
2022/01/03 08:11:00;;;;;;;25.25;3.13;;;10.30;99.90;;;;;;5067800;28;20048;-80
2022/01/03 08:13:26;;;;;;;23.20;2.72;;;8.90;99.90;;;;;;5033590;28;20394;-78
2022/01/03 08:15:52;;;;;;;27.02;3.45;;;9.20;99.90;;;;;;5051130;28;20052;-80
2022/01/03 08:18:17;;;;;;;20.55;1.90;;;9.50;99.90;;;;;;5082888;28;20055;-80
2022/01/03 08:20:43;;;;;;;21.73;3.10;;;9.00;99.90;;;;;;5068113;28;20044;-81
2022/01/03 08:23:09;;;;;;;12.63;2.63;;;9.10;99.90;;;;;;5066536;28;20079;-79
2022/01/03 08:25:37;;;;;;;21.83;3.85;;;9.10;99.90;;;;;;5050001;28;20040;-80
2022/01/03 08:28:08;;;;;;;20.40;3.78;;;9.10;99.90;;;;;;5084565;28;20404;-79
2022/01/03 08:30:35;;;;;;;27.75;2.75;;;9.60;99.90;;;;;;5084243;28;20052;-80
2022/01/03 08:33:01;;;;;;;19.50;3.72;;;9.30;99.90;;;;;;5085961;28;20046;-80
2022/01/03 08:35:27;;;;;;;29.75;3.10;;;9.20;99.90;;;;;;5084188;28;20063;-80
2022/01/03 08:37:53;;;;;;;21.08;2.97;;;9.20;99.90;;;;;;5086034;28;20399;-80
2022/01/03 08:40:19;;;;;;;20.52;2.72;;;9.60;99.90;;;;;;5085008;28;20464;-80
2022/01/03 08:42:45;;;;;;;23.42;2.63;;;9.30;99.90;;;;;;5085029;28;20438;-80
2022/01/03 08:45:12;;;;;;;26.15;3.85;;;9.30;99.90;;;;;;5085623;28;20048;-80
2022/01/03 08:47:38;;;;;;;19.23;3.20;;;9.30;99.90;;;;;;5084005;28;20040;-80
2022/01/03 08:50:04;;;;;;;18.52;2.65;;;10.90;99.90;;;;;;5086105;28;20040;-80
2022/01/03 08:52:31;;;;;;;20.75;2.50;;;9.30;99.90;;;;;;5084016;28;20044;-80
2022/01/03 08:54:57;;;;;;;21.30;2.45;;;9.50;99.90;;;;;;5085894;28;20088;-80
2022/01/03 08:57:23;;;;;;;24.27;2.58;;;9.40;99.90;;;;;;5084504;28;20043;-80
2022/01/03 08:59:49;;;;;;;26.02;3.55;;;9.40;99.90;;;;;;5084542;28;20126;-80
2022/01/03 09:02:16;;;;;;;29.10;3.17;;;9.40;99.90;;;;;;5085382;28;20383;-80
2022/01/03 09:04:46;;;;;;;22.85;2.95;;;9.40;99.90;;;;;;5084174;28;20162;-79
2022/01/03 09:07:12;;;;;;;21.42;3.03;;;9.40;99.90;;;;;;5085712;28;20655;-80
2022/01/03 09:09:38;;;;;;;28.00;3.08;;;9.40;99.90;;;;;;5082338;28;20155;-80
2022/01/03 09:12:06;;;;;;;20.27;2.60;;;9.40;99.90;;;;;;5085279;28;20040;-80
2022/01/03 09:14:33;;;;;;;19.83;2.58;;;9.50;99.90;;;;;;5084163;28;20505;-80
2022/01/03 09:16:59;;;;;;;16.60;2.70;;;9.50;99.90;;;;;;5083859;28;20185;-80
2022/01/03 09:19:25;;;;;;;27.13;2.95;;;9.50;99.90;;;;;;5085194;28;20052;-80
2022/01/03 09:21:59;;;;;;;28.27;4.15;;;9.70;99.90;;;;;;5065189;28;20483;-80
2022/01/03 09:24:43;;;;;;;27.50;2.85;;;9.60;99.90;;;;;;5067245;28;20054;-80
2022/01/03 09:29:57;;;;;;;23.17;3.08;;;9.60;99.90;;;;;;5083519;28;20582;-80
2022/01/03 09:32:22;;;;;;;18.35;2.42;;;9.60;99.90;;;;;;5067029;28;20423;-80
2022/01/03 09:34:48;;;;;;;19.48;3.25;;;9.60;99.90;;;;;;5083289;28;20040;-80
2022/01/03 09:37:19;;;;;;;25.27;2.45;;;9.60;99.90;;;;;;5084879;28;20044;-80
2022/01/03 09:39:46;;;;;;;25.27;2.60;;;9.60;99.90;;;;;;5083821;28;20046;-80
2022/01/03 09:42:14;;;;;;;23.05;3.25;;;9.60;99.90;;;;;;5084738;28;20048;-81
2022/01/03 09:44:43;;;;;;;23.48;2.92;;;9.60;99.90;;;;;;5084471;28;20040;-80
2022/01/03 09:47:12;;;;;;;29.35;3.30;;;9.90;99.90;;;;;;5083634;28;20036;-80
2022/01/03 09:49:38;;;;;;;22.88;3.42;;;9.60;99.90;;;;;;5084901;28;20048;-80
2022/01/03 09:52:06;;;;;;;22.20;2.55;;;10.70;99.90;;;;;;5083329;28;20063;-80
2022/01/03 09:54:33;;;;;;;24.50;3.00;;;9.60;99.90;;;;;;5085026;28;20048;-80
2022/01/03 09:57:01;;;;;;;26.08;3.40;;;9.80;99.90;;;;;;5065216;28;20106;-80
2022/01/03 09:59:29;;;;;;;28.85;3.33;;;9.80;99.90;;;;;;5083999;28;20086;-81
2022/01/03 10:01:58;;;;;;;20.02;3.00;;;9.60;99.90;;;;;;5066297;28;20087;-80
2022/01/03 10:04:24;;;;;;;28.13;3.03;;;9.70;99.90;;;;;;5065291;28;20074;-81
2022/01/03 10:06:51;;;;;;;20.75;2.78;;;9.70;99.90;;;;;;5084986;28;20040;-80
2022/01/03 10:09:20;;;;;;;23.13;3.15;;;9.80;99.90;;;;;;5082721;28;20052;-80
2022/01/03 10:11:47;;;;;;;21.85;3.00;;;9.70;99.90;;;;;;5066924;28;20131;-81
2022/01/03 10:14:13;;;;;;;18.27;2.60;;;10.10;99.90;;;;;;5083448;28;20040;-81
2022/01/03 10:16:44;;;;;;;15.85;2.65;;;10.00;99.90;;;;;;5065399;28;20058;-81
2022/01/03 10:19:10;;;;;;;19.35;3.33;;;9.80;99.90;;;;;;5066291;28;20438;-81
2022/01/03 10:21:43;;;;;;;28.05;2.40;;;9.80;99.90;;;;;;5083056;28;20515;-81
2022/01/03 10:24:10;;;;;;;24.38;4.32;;;9.90;99.90;;;;;;5084702;28;20044;-81
2022/01/03 10:26:37;;;;;;;21.85;2.63;;;9.90;99.90;;;;;;5065091;28;20040;-81
2022/01/03 10:29:19;;;;;;;29.00;3.95;;;9.90;99.90;;;;;;5084336;28;20121;-81
2022/01/03 10:31:47;;;;;;;28.25;3.60;;;10.00;99.90;;;;;;5084250;28;20056;-81
2022/01/03 10:34:15;;;;;;;23.67;3.17;;;10.00;99.90;;;;;;5082873;28;20040;-82
2022/01/03 10:36:45;;;;;;;22.20;3.10;;;10.00;99.90;;;;;;5084937;28;20109;-81
2022/01/03 10:39:20;;;;;;;18.05;2.38;;;10.00;99.90;;;;;;5082418;28;20552;-81
2022/01/03 10:41:48;;;;;;;20.40;2.33;;;10.60;99.90;;;;;;5066513;28;20079;-81
2022/01/03 10:44:40;;;;;;;23.33;3.03;;;10.50;99.90;;;;;;5064640;28;20051;-81
2022/01/03 10:47:08;;;;;;;19.70;2.60;;;10.10;99.90;;;;;;5065449;28;20052;-81
2022/01/03 10:49:36;;;;;;;20.95;2.90;;;10.20;99.90;;;;;;5088329;28;20188;-81
2022/01/03 10:52:20;;;;;;;23.35;3.45;;;10.20;99.90;;;;;;5086324;28;20036;-81
2022/01/03 10:55:09;;;;;;;25.58;3.85;;;10.20;99.90;;;;;;5087537;28;20040;-81
2022/01/03 10:57:52;;;;;;;17.50;2.45;;;10.20;99.90;;;;;;5053076;28;20506;-81
2022/01/03 11:00:23;;;;;;;23.38;2.85;;;10.20;99.90;;;;;;5084553;28;20051;-81
2022/01/03 11:03:20;;;;;;;31.50;3.10;;;10.20;99.90;;;;;;5069879;28;20036;-81
2022/01/03 11:05:57;;;;;;;22.02;2.55;;;10.30;99.90;;;;;;5087029;28;20036;-81
2022/01/03 11:11:12;;;;;;;17.23;2.67;;;10.20;99.90;;;;;;5069523;28;20394;-81
2022/01/03 11:13:44;;;;;;;18.52;2.65;;;10.30;99.90;;;;;;5067202;28;20044;-81
2022/01/03 11:16:11;;;;;;;24.23;2.55;;;10.30;99.90;;;;;;5051610;28;20522;-81
2022/01/03 11:18:45;;;;;;;20.33;3.03;;;10.20;99.90;;;;;;5086371;28;20471;-82
2022/01/03 11:21:19;;;;;;;19.90;2.67;;;10.30;99.90;;;;;;5085548;28;20070;-81
2022/01/03 11:23:46;;;;;;;19.05;2.45;;;10.30;99.90;;;;;;5069369;28;20127;-81
2022/01/03 11:26:15;;;;;;;21.40;2.90;;;10.30;99.90;;;;;;5085078;28;20471;-81
2022/01/03 11:28:42;;;;;;;24.40;2.88;;;10.30;99.90;;;;;;5068761;28;20450;-79
2022/01/03 11:31:10;;;;;;;22.55;2.92;;;10.30;99.90;;;;;;5068032;28;20445;-81
2022/01/03 11:33:38;;;;;;;17.45;1.98;;;10.40;99.90;;;;;;5086308;28;20169;-81
2022/01/03 11:36:04;;;;;;;16.85;2.60;;;10.40;99.90;;;;;;5086111;28;20077;-81
2022/01/03 11:38:33;;;;;;;21.67;2.40;;;10.40;99.90;;;;;;5050339;28;20491;-82
2022/01/03 11:41:04;;;;;;;19.80;2.70;;;10.40;99.90;;;;;;5068975;28;20092;-81
2022/01/03 11:43:34;;;;;;;21.35;2.38;;;10.60;99.90;;;;;;5086055;28;20503;-81
2022/01/03 11:46:00;;;;;;;17.80;2.97;;;10.40;99.90;;;;;;5086663;28;20503;-81
2022/01/03 11:48:28;;;;;;;18.55;2.88;;;10.40;99.90;;;;;;5067416;28;20052;-81
2022/01/03 11:50:57;;;;;;;20.20;1.83;;;11.60;99.90;;;;;;5085471;28;20146;-81
2022/01/03 11:53:23;;;;;;;19.05;2.80;;;9.70;99.90;;;;;;5085401;28;20040;-81
2022/01/03 11:55:53;;;;;;;23.92;2.80;;;10.60;99.90;;;;;;5084713;28;20480;-82
2022/01/03 11:58:46;;;;;;;16.77;2.10;;;10.50;99.90;;;;;;5086353;28;20113;-82
2022/01/03 12:04:00;;;;;;;25.35;2.95;;;10.50;99.90;;;;;;5083415;28;20036;-81
2022/01/03 12:06:33;;;;;;;15.75;2.70;;;10.50;99.90;;;;;;5086361;28;20044;-82
2022/01/03 12:09:14;;;;;;;20.15;2.95;;;10.50;99.90;;;;;;5083420;28;20381;-81
2022/01/03 12:11:46;;;;;;;16.95;2.03;;;11.90;99.90;;;;;;5068096;28;20044;-82
2022/01/03 12:14:16;;;;;;;19.10;2.80;;;10.50;99.90;;;;;;5085184;28;20047;-81
2022/01/03 12:16:52;;;;;;;14.52;2.33;;;9.60;99.90;;;;;;5084349;28;20079;-81
2022/01/03 12:19:45;;;;;;;18.60;2.35;;;10.50;99.90;;;;;;5086187;28;20312;-81
2022/01/03 12:22:17;;;;;;;;;;;10.50;99.90;;;;;;5085272;28;20040;-82
2022/01/03 12:24:49;;;;;;;18.15;2.40;;;10.50;99.90;;;;;;5085898;28;19920;-82
2022/01/03 12:27:15;;;;;;;10.02;2.10;;;10.50;99.90;;;;;;5085781;28;20044;-81
2022/01/03 12:29:56;;;;;;;21.10;2.60;;;10.50;99.90;;;;;;5084205;28;20109;-82
2022/01/03 12:32:35;;;;;;;22.90;2.88;;;10.40;99.90;;;;;;5086346;28;20044;-81
2022/01/03 12:35:23;;;;;;;18.00;3.22;;;10.40;99.90;;;;;;5084114;28;20123;-81
2022/01/03 12:37:54;;;;;;;16.13;1.77;;;10.30;99.90;;;;;;5049768;28;20075;-81
2022/01/03 12:40:30;;;;;;;24.75;3.25;;;10.30;99.90;;;;;;5067245;28;20044;-81
2022/01/03 12:43:12;;;;;;;13.70;2.38;;;10.40;99.90;;;;;;5083977;28;20091;-81
2022/01/03 12:45:42;;;;;;;21.67;2.55;;;10.30;99.90;;;;;;5067695;28;20056;-82
2022/01/03 12:48:08;;;;;;;21.25;2.88;;;10.40;99.90;;;;;;5065840;28;20052;-82
2022/01/03 12:50:39;;;;;;;20.02;2.05;;;10.40;99.90;;;;;;5050120;28;20078;-82
2022/01/03 12:53:07;;;;;;;20.40;2.78;;;10.40;99.90;;;;;;5085260;28;20050;-82
2022/01/03 12:55:38;;;;;;;21.13;2.17;;;10.60;99.90;;;;;;5083997;28;20109;-81
2022/01/03 12:58:20;;;;;;;21.13;2.90;;;10.40;99.90;;;;;;5067089;28;20052;-81
2022/01/03 13:00:48;;;;;;;26.27;3.70;;;10.50;99.90;;;;;;5083587;28;20606;-81
2022/01/03 13:03:29;;;;;;;18.67;2.40;;;10.50;99.90;;;;;;5085076;28;20052;-81
2022/01/03 13:06:19;;;;;;;12.30;2.38;;;10.50;99.90;;;;;;5085223;28;20040;-81
2022/01/03 13:08:48;;;;;;;14.25;2.50;;;10.50;99.90;;;;;;5083596;28;20047;-81
2022/01/03 13:11:22;;;;;;;20.83;2.63;;;10.50;99.90;;;;;;5084494;28;20044;-81